createdAt,value
2022-08-17T00:00:44.030Z,98030.53
2022-08-17T00:01:53.253Z,98030.93
2022-08-17T00:03:06.375Z,98033.27
2022-08-17T00:04:11.674Z,98029.75
2022-08-17T00:05:15.708Z,98030.00
2022-08-17T00:06:29.391Z,98027.69
2022-08-17T00:07:31.105Z,98031.07
2022-08-17T00:08:36.906Z,98024.69
2022-08-17T00:09:38.659Z,98024.38
2022-08-17T00:10:41.920Z,98024.48
2022-08-17T00:12:35.510Z,98019.55
2022-08-17T00:13:12.510Z,98019.01
2022-08-17T00:14:17.745Z,98016.54
2022-08-17T00:15:21.598Z,98022.14
2022-08-17T00:16:55.893Z,98023.04
2022-08-17T00:17:53.206Z,98025.27
2022-08-17T00:19:07.527Z,98021.57
2022-08-17T00:20:12.269Z,98020.54
2022-08-17T00:21:17.080Z,98024.05
2022-08-17T00:22:35.122Z,98024.44
2022-08-17T00:23:39.369Z,98024.98
2022-08-17T00:24:48.660Z,98022.61
2022-08-17T00:25:50.694Z,98021.03
2022-08-17T00:26:52.405Z,98016.50
2022-08-17T00:27:54.133Z,98019.31
2022-08-17T00:28:56.938Z,98016.45
2022-08-17T00:29:58.627Z,98022.84
2022-08-17T00:31:01.116Z,98016.73
2022-08-17T00:33:11.959Z,98021.23
2022-08-17T00:33:30.686Z,98023.30
2022-08-17T00:34:32.720Z,98021.42
2022-08-17T00:35:35.433Z,98022.02
2022-08-17T00:36:37.797Z,98022.36
2022-08-17T00:37:40.309Z,98022.73
2022-08-17T00:38:42.350Z,98020.17
2022-08-17T00:39:44.316Z,98021.15
2022-08-17T00:40:50.028Z,98018.10
2022-08-17T00:41:53.580Z,98020.35
2022-08-17T00:42:55.499Z,98019.06
2022-08-17T00:44:03.232Z,98022.20
2022-08-17T00:45:11.164Z,98017.71
2022-08-17T00:46:28.174Z,98023.64
2022-08-17T00:47:30.173Z,98023.08
2022-08-17T00:48:32.468Z,98024.43
2022-08-17T00:49:34.214Z,98028.20
2022-08-17T00:50:37.335Z,98030.01
2022-08-17T00:51:54.993Z,98031.94
2022-08-17T00:52:58.788Z,98028.34
2022-08-17T00:54:19.066Z,98034.07
2022-08-17T00:55:22.296Z,98033.91
2022-08-17T00:56:31.605Z,98030.55
2022-08-17T00:57:40.217Z,98032.41
2022-08-17T00:58:42.109Z,98030.86
2022-08-17T01:00:01.986Z,98032.29
2022-08-17T01:01:08.613Z,98030.54
2022-08-17T01:02:15.237Z,98032.23
2022-08-17T01:03:27.657Z,98028.59
2022-08-17T01:04:32.416Z,98031.29
2022-08-17T01:05:38.736Z,98031.79
2022-08-17T01:06:49.445Z,98031.80
2022-08-17T01:07:51.738Z,98030.77
2022-08-17T01:08:57.586Z,98029.34
2022-08-17T01:10:06.071Z,98028.69
2022-08-17T01:11:08.362Z,98029.35
2022-08-17T01:12:12.144Z,98028.63
2022-08-17T01:13:14.277Z,98023.74
2022-08-17T01:14:16.056Z,98025.06
2022-08-17T01:15:17.884Z,98023.00
2022-08-17T01:16:26.725Z,98023.79
2022-08-17T01:17:28.546Z,98021.42
2022-08-17T01:18:32.277Z,98022.53
2022-08-17T01:19:39.254Z,98023.48
2022-08-17T01:20:48.970Z,98021.14
2022-08-17T01:22:02.726Z,98024.21
2022-08-17T01:23:04.814Z,98027.96
2022-08-17T01:24:07.393Z,98025.77
2022-08-17T01:25:12.698Z,98025.19
2022-08-17T01:26:14.703Z,98027.71
2022-08-17T01:27:18.454Z,98030.13
2022-08-17T01:28:52.568Z,98031.48
2022-08-17T01:29:51.119Z,98035.53
2022-08-17T01:30:58.066Z,98033.99
2022-08-17T01:32:06.035Z,98034.97
2022-08-17T01:33:11.377Z,98034.30
2022-08-17T01:34:16.554Z,98032.49
2022-08-17T01:35:18.243Z,98030.33
2022-08-17T01:36:20.236Z,98029.59
2022-08-17T01:37:31.177Z,98024.03
2022-08-17T01:38:37.208Z,98026.01
2022-08-17T01:39:45.728Z,98025.65
2022-08-17T01:40:57.564Z,98025.36
2022-08-17T01:42:09.403Z,98028.65
2022-08-17T01:43:25.034Z,98025.80
2022-08-17T01:44:27.812Z,98027.52
2022-08-17T01:45:33.805Z,98021.55
2022-08-17T01:46:38.559Z,98025.15
2022-08-17T01:47:41.749Z,98026.27
2022-08-17T01:48:47.261Z,98025.36
2022-08-17T01:49:49.265Z,98024.05
2022-08-17T01:50:51.973Z,98023.28
2022-08-17T01:51:54.742Z,98025.82
2022-08-17T01:53:05.977Z,98023.88
2022-08-17T01:54:12.828Z,98025.61
2022-08-17T01:55:25.880Z,98023.88
2022-08-17T01:56:32.575Z,98026.61
2022-08-17T01:57:34.371Z,98025.70
2022-08-17T01:58:37.858Z,98021.87
2022-08-17T01:59:39.722Z,98025.86
2022-08-17T02:00:59.465Z,98023.98
2022-08-17T02:02:04.845Z,98024.36
2022-08-17T02:03:08.246Z,98030.01
2022-08-17T02:04:11.325Z,98028.59
2022-08-17T02:05:13.187Z,98023.20
2022-08-17T02:06:27.284Z,98023.80
2022-08-17T02:07:29.980Z,98026.20
2022-08-17T02:08:39.165Z,98026.10
2022-08-17T02:09:57.362Z,98020.72
2022-08-17T02:11:04.302Z,98025.95
2022-08-17T02:12:38.865Z,98029.17
2022-08-17T02:13:35.834Z,98025.68
2022-08-17T02:14:37.550Z,98028.12
2022-08-17T02:15:41.483Z,98027.18
2022-08-17T02:16:43.385Z,98025.30
2022-08-17T02:17:45.304Z,98028.44
2022-08-17T02:18:46.997Z,98027.58
2022-08-17T02:19:48.766Z,98024.04
2022-08-17T02:20:50.430Z,98024.19
2022-08-17T02:21:54.069Z,98023.17
2022-08-17T02:22:55.842Z,98021.98
2022-08-17T02:23:57.622Z,98022.34
2022-08-17T02:25:02.573Z,98021.89
2022-08-17T02:26:05.753Z,98023.66
2022-08-17T02:27:07.611Z,98021.23
2022-08-17T02:28:10.280Z,98021.52
2022-08-17T02:29:12.079Z,98023.73
2022-08-17T02:31:01.816Z,98023.77
2022-08-17T02:31:37.918Z,98023.83
2022-08-17T02:32:40.757Z,98022.67
2022-08-17T02:33:43.791Z,98024.48
2022-08-17T02:34:46.044Z,98022.81
2022-08-17T02:35:48.082Z,98020.99
2022-08-17T02:36:49.734Z,98020.30
2022-08-17T02:37:55.462Z,98024.84
2022-08-17T02:38:58.559Z,98025.52
2022-08-17T02:40:00.502Z,98023.13
2022-08-17T02:41:03.146Z,98025.04
2022-08-17T02:42:05.421Z,98023.52
2022-08-17T02:43:08.811Z,98024.77
2022-08-17T02:44:11.351Z,98024.06
2022-08-17T02:45:19.582Z,98022.48
2022-08-17T02:46:21.258Z,98020.70
2022-08-17T02:47:23.512Z,98017.95
2022-08-17T02:48:30.824Z,98017.86
2022-08-17T02:49:33.597Z,98023.38
2022-08-17T02:50:35.316Z,98024.92
2022-08-17T02:51:37.292Z,98028.02
2022-08-17T02:52:43.666Z,98030.60
2022-08-17T02:53:46.743Z,98031.12
2022-08-17T02:54:48.431Z,98035.52
2022-08-17T02:55:50.126Z,98036.08
2022-08-17T02:56:53.479Z,98035.46
2022-08-17T02:57:55.982Z,98034.93
2022-08-17T02:58:58.630Z,98039.83
2022-08-17T03:00:00.273Z,98038.95
2022-08-17T03:01:03.261Z,98034.97
2022-08-17T03:02:08.328Z,98035.61
2022-08-17T03:03:11.081Z,98033.73
2022-08-17T03:04:12.838Z,98032.23
2022-08-17T03:05:18.252Z,98036.61
2022-08-17T03:06:19.894Z,98037.55
2022-08-17T03:07:21.609Z,98040.20
2022-08-17T03:08:23.834Z,98037.45
2022-08-17T03:09:25.570Z,98040.45
2022-08-17T03:10:28.244Z,98039.84
2022-08-17T03:11:29.942Z,98040.08
2022-08-17T03:12:41.650Z,98046.28
2022-08-17T03:13:43.281Z,98044.27
2022-08-17T03:14:44.943Z,98043.45
2022-08-17T03:15:47.166Z,98042.85
2022-08-17T03:16:48.831Z,98040.59
2022-08-17T03:17:52.063Z,98038.97
2022-08-17T03:18:55.026Z,98036.48
2022-08-17T03:19:56.719Z,98037.54
2022-08-17T03:21:04.131Z,98033.61
2022-08-17T03:22:35.405Z,98031.98
2022-08-17T03:23:31.103Z,98034.50
2022-08-17T03:24:32.896Z,98037.59
2022-08-17T03:25:38.604Z,98036.55
2022-08-17T03:26:40.382Z,98033.76
2022-08-17T03:27:42.168Z,98036.35
2022-08-17T03:28:49.825Z,98036.29
2022-08-17T03:29:51.471Z,98032.19
2022-08-17T03:30:53.352Z,98040.28
2022-08-17T03:31:55.032Z,98038.17
2022-08-17T03:33:00.810Z,98035.06
2022-08-17T03:34:02.480Z,98035.55
2022-08-17T03:35:04.438Z,98035.95
2022-08-17T03:36:07.002Z,98038.46
2022-08-17T03:37:09.461Z,98039.06
2022-08-17T03:38:15.364Z,98037.73
2022-08-17T03:39:17.897Z,98037.34
2022-08-17T03:40:34.449Z,98034.61
2022-08-17T03:41:42.054Z,98039.16
2022-08-17T03:42:44.274Z,98039.55
2022-08-17T03:43:46.044Z,98038.14
2022-08-17T03:44:57.142Z,98040.11
2022-08-17T03:46:28.810Z,98042.77
2022-08-17T03:47:56.091Z,98047.02
2022-08-17T03:49:16.684Z,98043.52
2022-08-17T03:50:19.046Z,98048.38
2022-08-17T03:51:42.692Z,98047.39
2022-08-17T03:53:02.903Z,98044.40
2022-08-17T03:54:23.656Z,98047.27
2022-08-17T03:55:43.613Z,98050.06
2022-08-17T03:56:55.115Z,98054.73
2022-08-17T03:57:56.800Z,98053.88
2022-08-17T03:58:58.493Z,98056.05
2022-08-17T04:00:00.413Z,98061.37
2022-08-17T04:01:02.323Z,98060.14
2022-08-17T04:02:11.075Z,98056.73
2022-08-17T04:03:13.847Z,98063.16
2022-08-17T04:04:16.833Z,98062.19
2022-08-17T04:05:18.540Z,98063.27
2022-08-17T04:06:20.808Z,98061.91
2022-08-17T04:07:26.108Z,98066.50
2022-08-17T04:08:29.103Z,98063.95
2022-08-17T04:09:31.125Z,98064.98
2022-08-17T04:10:33.975Z,98063.55
2022-08-17T04:11:43.274Z,98065.70
2022-08-17T04:12:52.999Z,98066.85
2022-08-17T04:13:56.101Z,98067.85
2022-08-17T04:14:58.298Z,98067.10
2022-08-17T04:16:00.026Z,98065.41
2022-08-17T04:17:02.538Z,98068.52
2022-08-17T04:18:04.401Z,98072.08
2022-08-17T04:19:06.318Z,98071.73
2022-08-17T04:20:08.573Z,98074.84
2022-08-17T04:21:10.636Z,98079.61
2022-08-17T04:22:12.378Z,98078.53
2022-08-17T04:23:36.569Z,98082.77
2022-08-17T04:24:38.311Z,98086.35
2022-08-17T04:25:44.462Z,98084.27
2022-08-17T04:26:53.817Z,98085.30
2022-08-17T04:27:57.695Z,98085.77
2022-08-17T04:28:59.893Z,98086.84
2022-08-17T04:30:02.195Z,98092.34
2022-08-17T04:31:04.738Z,98088.25
2022-08-17T04:32:06.797Z,98088.05
2022-08-17T04:33:18.345Z,98097.41
2022-08-17T04:34:20.261Z,98094.08
2022-08-17T04:35:25.957Z,98091.45
2022-08-17T04:36:28.357Z,98094.66
2022-08-17T04:37:30.220Z,98096.98
2022-08-17T04:38:35.792Z,98094.06
2022-08-17T04:39:37.519Z,98094.90
2022-08-17T04:40:58.028Z,98097.97
2022-08-17T04:42:17.030Z,98096.63
2022-08-17T04:43:22.198Z,98094.73
2022-08-17T04:44:30.406Z,98097.11
2022-08-17T04:45:55.478Z,98096.77
2022-08-17T04:46:58.518Z,98099.48
2022-08-17T04:48:01.227Z,98099.36
2022-08-17T04:49:06.739Z,98101.61
2022-08-17T04:50:09.280Z,98103.09
2022-08-17T04:51:14.947Z,98102.54
2022-08-17T04:52:29.775Z,98104.15
2022-08-17T04:53:44.476Z,98105.09
2022-08-17T04:54:46.174Z,98105.23
2022-08-17T04:55:48.451Z,98105.50
2022-08-17T04:56:50.166Z,98105.61
2022-08-17T04:57:51.855Z,98108.21
2022-08-17T04:58:56.784Z,98109.55
2022-08-17T04:59:58.480Z,98110.83
2022-08-17T05:01:00.486Z,98107.29
2022-08-17T05:02:02.326Z,98108.71
2022-08-17T05:03:04.956Z,98109.84
2022-08-17T05:04:32.121Z,98107.58
2022-08-17T05:05:36.455Z,98103.76
2022-08-17T05:06:38.233Z,98101.73
2022-08-17T05:07:39.961Z,98103.81
2022-08-17T05:08:42.122Z,98101.94
2022-08-17T05:09:43.981Z,98101.83
2022-08-17T05:10:46.965Z,98095.20
2022-08-17T05:11:48.844Z,98096.08
2022-08-17T05:13:15.804Z,98095.80
2022-08-17T05:14:17.510Z,98092.33
2022-08-17T05:15:19.249Z,98099.86
2022-08-17T05:16:23.583Z,98098.27
2022-08-17T05:17:25.295Z,98100.06
2022-08-17T05:18:29.570Z,98097.92
2022-08-17T05:19:31.336Z,98096.66
2022-08-17T05:20:34.970Z,98096.80
2022-08-17T05:21:36.688Z,98096.05
2022-08-17T05:22:51.275Z,98098.90
2022-08-17T05:23:56.395Z,98096.92
2022-08-17T05:24:58.657Z,98091.85
2022-08-17T05:26:04.398Z,98098.18
2022-08-17T05:27:09.640Z,98098.11
2022-08-17T05:28:19.059Z,98098.89
2022-08-17T05:29:33.790Z,98097.86
2022-08-17T05:30:40.421Z,98099.52
2022-08-17T05:31:42.151Z,98102.16
2022-08-17T05:33:00.308Z,98106.45
2022-08-17T05:34:02.062Z,98105.51
2022-08-17T05:35:05.359Z,98109.16
2022-08-17T05:36:09.616Z,98108.48
2022-08-17T05:37:31.301Z,98109.55
2022-08-17T05:38:33.194Z,98113.14
2022-08-17T05:39:34.898Z,98110.17
2022-08-17T05:40:37.151Z,98112.05
2022-08-17T05:41:39.220Z,98108.26
2022-08-17T05:42:41.505Z,98108.36
2022-08-17T05:43:43.351Z,98107.73
2022-08-17T05:44:45.176Z,98109.39
2022-08-17T05:46:13.297Z,98113.79
2022-08-17T05:47:15.249Z,98110.20
2022-08-17T05:48:17.041Z,98115.04
2022-08-17T05:49:28.349Z,98117.09
2022-08-17T05:50:45.755Z,98116.58
2022-08-17T05:52:08.498Z,98118.43
2022-08-17T05:53:32.789Z,98119.49
2022-08-17T05:54:43.375Z,98118.91
2022-08-17T05:56:29.465Z,98117.89
2022-08-17T05:57:56.061Z,98117.16
2022-08-17T05:59:18.649Z,98115.15
2022-08-17T06:00:30.586Z,98113.18
2022-08-17T06:01:48.591Z,98111.52
2022-08-17T06:02:56.000Z,98109.30
2022-08-17T06:04:22.573Z,98114.95
2022-08-17T06:05:55.393Z,98111.81
2022-08-17T06:07:21.704Z,98117.42
2022-08-17T06:08:54.021Z,98116.73
2022-08-17T06:10:14.707Z,98115.77
2022-08-17T06:11:32.838Z,98118.31
2022-08-17T06:12:56.195Z,98117.20
2022-08-17T06:14:30.598Z,98122.95
2022-08-17T06:15:52.618Z,98120.38
2022-08-17T06:17:02.357Z,98126.70
2022-08-17T06:18:08.178Z,98122.39
2022-08-17T06:19:48.656Z,98123.58
2022-08-17T06:20:53.484Z,98119.88
2022-08-17T06:21:55.953Z,98119.42
2022-08-17T06:23:08.701Z,98119.67
2022-08-17T06:24:35.659Z,98117.36
2022-08-17T06:25:49.680Z,98121.55
2022-08-17T06:26:54.763Z,98118.89
2022-08-17T06:28:08.657Z,98120.18
2022-08-17T06:29:41.211Z,98117.38
2022-08-17T06:31:00.743Z,98120.02
2022-08-17T06:32:05.000Z,98120.52
2022-08-17T06:33:17.370Z,98122.11
2022-08-17T06:34:20.815Z,98123.06
2022-08-17T06:35:34.143Z,98121.10
2022-08-17T06:36:53.961Z,98125.83
2022-08-17T06:38:37.119Z,98129.55
2022-08-17T06:39:37.691Z,98130.83
2022-08-17T06:41:13.762Z,98126.13
2022-08-17T06:43:00.819Z,98128.96
2022-08-17T06:44:43.179Z,98127.78
2022-08-17T06:46:11.462Z,98124.77
2022-08-17T06:47:28.162Z,98125.27
2022-08-17T06:49:09.041Z,98121.18
2022-08-17T06:50:35.917Z,98122.20
2022-08-17T06:51:40.603Z,98122.84
2022-08-17T06:52:57.670Z,98123.95
2022-08-17T06:54:14.347Z,98126.69
2022-08-17T06:55:26.383Z,98126.40
2022-08-17T06:56:53.296Z,98128.49
2022-08-17T06:58:05.330Z,98127.57
2022-08-17T06:59:23.661Z,98130.73
2022-08-17T07:00:37.058Z,98124.88
2022-08-17T07:01:42.125Z,98124.27
2022-08-17T07:02:58.794Z,98120.01
2022-08-17T07:04:12.106Z,98120.98
2022-08-17T07:05:18.322Z,98117.78
2022-08-17T07:06:32.433Z,98115.98
2022-08-17T07:08:04.861Z,98116.84
2022-08-17T07:09:18.689Z,98119.52
2022-08-17T07:10:23.645Z,98125.64
2022-08-17T07:11:30.969Z,98124.45
2022-08-17T07:12:39.405Z,98120.36
2022-08-17T07:14:05.878Z,98124.00
2022-08-17T07:15:25.939Z,98121.33
2022-08-17T07:16:48.952Z,98124.38
2022-08-17T07:17:50.883Z,98123.48
2022-08-17T07:18:56.432Z,98120.82
2022-08-17T07:20:08.217Z,98123.90
2022-08-17T07:21:26.912Z,98120.73
2022-08-17T07:23:09.049Z,98119.48
2022-08-17T07:24:43.174Z,98123.39
2022-08-17T07:25:44.887Z,98122.51
2022-08-17T07:26:49.516Z,98125.46
2022-08-17T07:27:55.882Z,98125.48
2022-08-17T07:29:00.706Z,98125.06
2022-08-17T07:30:10.862Z,98128.16
2022-08-17T07:31:14.292Z,98132.24
2022-08-17T07:32:20.730Z,98132.23
2022-08-17T07:33:34.219Z,98131.15
2022-08-17T07:35:08.507Z,98134.09
2022-08-17T07:36:29.594Z,98133.10
2022-08-17T07:37:33.325Z,98134.70
2022-08-17T07:38:35.637Z,98134.48
2022-08-17T07:39:37.446Z,98130.20
2022-08-17T07:41:05.368Z,98134.16
2022-08-17T07:42:10.464Z,98134.46
2022-08-17T07:43:23.074Z,98134.36
2022-08-17T07:44:25.418Z,98136.73
2022-08-17T07:45:45.730Z,98138.02
2022-08-17T07:47:11.690Z,98132.11
2022-08-17T07:48:21.382Z,98136.11
2022-08-17T07:49:22.980Z,98135.00
2022-08-17T07:50:30.050Z,98139.41
2022-08-17T07:51:36.478Z,98140.64
2022-08-17T07:52:50.691Z,98134.52
2022-08-17T07:54:14.561Z,98140.81
2022-08-17T07:55:29.469Z,98141.58
2022-08-17T07:56:42.266Z,98140.00
2022-08-17T07:57:57.439Z,98139.63
2022-08-17T07:59:12.543Z,98140.83
2022-08-17T08:00:19.770Z,98139.32
2022-08-17T08:01:41.788Z,98139.01
2022-08-17T08:02:47.307Z,98135.21
2022-08-17T08:03:52.765Z,98140.85
2022-08-17T08:05:06.788Z,98137.62
2022-08-17T08:06:24.351Z,98136.52
2022-08-17T08:07:32.042Z,98138.13
2022-08-17T08:08:51.169Z,98137.89
2022-08-17T08:10:07.809Z,98137.66
2022-08-17T08:11:15.411Z,98139.03
2022-08-17T08:12:34.919Z,98141.27
2022-08-17T08:13:43.574Z,98143.20
2022-08-17T08:14:58.716Z,98140.99
2022-08-17T08:16:27.578Z,98142.36
2022-08-17T08:17:36.394Z,98144.34
2022-08-17T08:18:54.109Z,98143.07
2022-08-17T08:20:00.492Z,98144.00
2022-08-17T08:21:33.640Z,98142.54
2022-08-17T08:22:46.366Z,98144.52
2022-08-17T08:23:57.492Z,98145.31
2022-08-17T08:25:21.400Z,98147.23
2022-08-17T08:26:37.578Z,98145.70
2022-08-17T08:27:54.423Z,98150.13
2022-08-17T08:29:11.334Z,98150.29
2022-08-17T08:30:18.459Z,98146.11
2022-08-17T08:31:47.670Z,98146.51
2022-08-17T08:33:21.038Z,98146.19
2022-08-17T08:35:02.826Z,98145.92
2022-08-17T08:36:59.326Z,98146.45
2022-08-17T08:38:13.534Z,98144.11
2022-08-17T08:39:24.761Z,98143.56
2022-08-17T08:40:45.547Z,98148.64
2022-08-17T08:42:08.856Z,98147.88
2022-08-17T08:43:36.263Z,98149.77
2022-08-17T08:45:00.264Z,98150.74
2022-08-17T08:46:29.594Z,98152.02
2022-08-17T08:47:41.572Z,98152.13
2022-08-17T08:49:10.232Z,98155.17
2022-08-17T08:50:37.820Z,98155.81
2022-08-17T08:51:57.508Z,98158.20
2022-08-17T08:53:14.316Z,98157.52
2022-08-17T08:54:35.151Z,98158.68
2022-08-17T08:55:50.832Z,98159.94
2022-08-17T08:57:33.950Z,98158.73
2022-08-17T08:58:50.672Z,98160.33
2022-08-17T09:00:01.420Z,98160.52
2022-08-17T09:01:27.134Z,98159.79
2022-08-17T09:03:17.838Z,98156.70
2022-08-17T09:05:10.670Z,98150.92
2022-08-17T09:06:32.292Z,98150.29
2022-08-17T09:08:01.590Z,98151.80
2022-08-17T09:09:29.234Z,98147.77
2022-08-17T09:10:47.911Z,98147.13
2022-08-17T09:12:07.970Z,98147.68
2022-08-17T09:13:28.463Z,98148.91
2022-08-17T09:15:09.438Z,98152.01
2022-08-17T09:16:23.139Z,98147.30
2022-08-17T09:17:43.624Z,98145.95
2022-08-17T09:19:00.040Z,98145.13
2022-08-17T09:20:27.995Z,98146.77
2022-08-17T09:21:54.780Z,98148.98
2022-08-17T09:23:15.358Z,98146.61
2022-08-17T09:24:35.742Z,98145.87
2022-08-17T09:25:54.850Z,98144.89
2022-08-17T09:27:04.414Z,98144.67
2022-08-17T09:28:19.301Z,98145.95
2022-08-17T09:29:25.910Z,98151.92
2022-08-17T09:30:43.582Z,98150.29
2022-08-17T09:31:55.606Z,98149.82
2022-08-17T09:33:02.278Z,98149.70
2022-08-17T09:34:33.210Z,98153.39
2022-08-17T09:35:48.257Z,98151.58
2022-08-17T09:36:57.298Z,98153.90
2022-08-17T09:38:11.244Z,98154.63
2022-08-17T09:39:36.330Z,98154.93
2022-08-17T09:40:47.661Z,98154.05
2022-08-17T09:42:05.219Z,98152.41
2022-08-17T09:43:37.637Z,98152.73
2022-08-17T09:45:10.291Z,98150.17
2022-08-17T09:46:20.318Z,98148.78
2022-08-17T09:47:50.264Z,98147.52
2022-08-17T09:49:03.588Z,98146.45
2022-08-17T09:51:04.246Z,98146.26
2022-08-17T09:51:57.092Z,98146.61
2022-08-17T09:52:59.654Z,98146.70
2022-08-17T09:54:37.124Z,98142.91
2022-08-17T09:55:52.581Z,98144.20
2022-08-17T09:57:31.448Z,98144.73
2022-08-17T09:58:50.440Z,98150.65
2022-08-17T10:00:17.265Z,98147.31
2022-08-17T10:01:35.425Z,98151.33
2022-08-17T10:03:09.612Z,98153.36
2022-08-17T10:04:41.044Z,98152.42
2022-08-17T10:05:56.875Z,98154.23
2022-08-17T10:07:13.179Z,98151.34
2022-08-17T10:08:46.999Z,98149.13
2022-08-17T10:10:01.545Z,98149.71
2022-08-17T10:11:33.406Z,98150.27
2022-08-17T10:12:50.129Z,98149.77
2022-08-17T10:14:36.822Z,98150.70
2022-08-17T10:15:56.444Z,98150.14
2022-08-17T10:17:24.127Z,98151.98
2022-08-17T10:18:39.912Z,98141.45
2022-08-17T10:20:03.173Z,98144.04
2022-08-17T10:21:31.649Z,98146.94
2022-08-17T10:23:12.262Z,98144.34
2022-08-17T10:25:20.975Z,98153.81
2022-08-17T10:26:24.854Z,98151.66
2022-08-17T10:27:41.574Z,98155.02
2022-08-17T10:29:01.615Z,98151.02
2022-08-17T10:30:08.234Z,98151.71
2022-08-17T10:31:45.545Z,98150.02
2022-08-17T10:33:15.627Z,98151.88
2022-08-17T10:34:23.275Z,98151.51
2022-08-17T10:35:53.775Z,98150.87
2022-08-17T10:37:25.284Z,98150.19
2022-08-17T10:38:50.510Z,98147.77
2022-08-17T10:39:57.402Z,98150.15
2022-08-17T10:41:27.050Z,98146.16
2022-08-17T10:42:44.418Z,98148.06
2022-08-17T10:43:55.857Z,98149.54
2022-08-17T10:45:21.660Z,98153.84
2022-08-17T10:46:52.142Z,98153.68
2022-08-17T10:48:06.245Z,98154.77
2022-08-17T10:49:17.293Z,98154.67
2022-08-17T10:50:49.737Z,98155.79
2022-08-17T10:51:58.359Z,98157.41
2022-08-17T10:53:00.069Z,98160.63
2022-08-17T10:54:03.389Z,98157.97
2022-08-17T10:55:13.926Z,98160.84
2022-08-17T10:56:17.423Z,98160.88
2022-08-17T10:57:34.347Z,98160.63
2022-08-17T10:58:59.162Z,98156.24
2022-08-17T11:00:42.425Z,98158.36
2022-08-17T11:02:04.182Z,98163.71
2022-08-17T11:03:21.214Z,98162.46
2022-08-17T11:04:34.452Z,98167.20
2022-08-17T11:05:56.200Z,98166.74
2022-08-17T11:07:43.854Z,98163.80
2022-08-17T11:09:09.810Z,98165.69
2022-08-17T11:10:42.240Z,98165.16
2022-08-17T11:12:07.431Z,98168.15
2022-08-17T11:13:44.899Z,98167.85
2022-08-17T11:15:26.116Z,98168.23
2022-08-17T11:16:42.847Z,98165.02
2022-08-17T11:18:22.739Z,98163.60
2022-08-17T11:19:38.386Z,98160.23
2022-08-17T11:21:13.548Z,98165.19
2022-08-17T11:23:02.596Z,98166.36
2022-08-17T11:24:14.965Z,98167.38
2022-08-17T11:25:21.106Z,98165.06
2022-08-17T11:26:27.258Z,98165.44
2022-08-17T11:27:36.606Z,98165.20
2022-08-17T11:28:52.582Z,98165.59
2022-08-17T11:30:20.591Z,98161.08
2022-08-17T11:31:40.193Z,98155.35
2022-08-17T11:32:48.804Z,98154.63
2022-08-17T11:34:13.279Z,98158.79
2022-08-17T11:35:20.915Z,98157.80
2022-08-17T11:36:33.664Z,98155.48
2022-08-17T11:38:02.819Z,98160.06
2022-08-17T11:39:13.289Z,98156.73
2022-08-17T11:40:28.104Z,98159.52
2022-08-17T11:41:41.365Z,98160.09
2022-08-17T11:43:03.369Z,98155.08
2022-08-17T11:44:43.237Z,98155.10
2022-08-17T11:45:53.616Z,98151.45
2022-08-17T11:47:38.826Z,98157.36
2022-08-17T11:49:04.926Z,98155.27
2022-08-17T11:50:43.066Z,98151.43
2022-08-17T11:52:12.115Z,98154.73
2022-08-17T11:53:37.128Z,98149.27
2022-08-17T11:54:48.914Z,98150.91
2022-08-17T11:55:53.080Z,98149.74
2022-08-17T11:56:55.056Z,98150.29
2022-08-17T11:58:01.653Z,98147.86
2022-08-17T11:59:32.688Z,98147.42
2022-08-17T12:00:46.525Z,98148.08
2022-08-17T12:01:57.007Z,98150.23
2022-08-17T12:03:22.464Z,98147.48
2022-08-17T12:04:29.522Z,98150.69
2022-08-17T12:05:34.098Z,98149.16
2022-08-17T12:06:59.758Z,98147.55
2022-08-17T12:08:19.728Z,98147.52
2022-08-17T12:09:26.353Z,98150.88
2022-08-17T12:10:32.788Z,98149.66
2022-08-17T12:12:12.893Z,98148.61
2022-08-17T12:13:19.050Z,98152.16
2022-08-17T12:15:05.712Z,98146.30
2022-08-17T12:15:56.092Z,98145.31
2022-08-17T12:17:41.498Z,98145.92
2022-08-17T12:18:58.494Z,98145.55
2022-08-17T12:20:15.053Z,98150.89
2022-08-17T12:21:41.037Z,98153.53
2022-08-17T12:23:11.763Z,98154.20
2022-08-17T12:24:23.110Z,98153.06
2022-08-17T12:25:52.798Z,98155.94
2022-08-17T12:27:00.393Z,98155.23
2022-08-17T12:28:06.099Z,98155.59
2022-08-17T12:29:18.171Z,98151.08
2022-08-17T12:30:38.169Z,98151.83
2022-08-17T12:31:47.190Z,98146.54
2022-08-17T12:32:50.059Z,98142.98
2022-08-17T12:33:52.265Z,98144.66
2022-08-17T12:34:54.036Z,98146.63
2022-08-17T12:36:05.916Z,98147.64
2022-08-17T12:37:19.891Z,98144.21
2022-08-17T12:38:32.461Z,98140.48
2022-08-17T12:39:35.240Z,98141.63
2022-08-17T12:40:37.903Z,98143.74
2022-08-17T12:41:47.056Z,98144.61
2022-08-17T12:43:19.549Z,98144.65
2022-08-17T12:44:31.472Z,98147.02
2022-08-17T12:45:36.406Z,98143.93
2022-08-17T12:47:10.639Z,98145.95
2022-08-17T12:48:21.550Z,98140.96
2022-08-17T12:49:36.893Z,98143.88
2022-08-17T12:50:42.428Z,98144.45
2022-08-17T12:51:46.765Z,98144.60
2022-08-17T12:52:48.655Z,98140.35
2022-08-17T12:53:55.095Z,98137.00
2022-08-17T12:55:03.023Z,98139.37
2022-08-17T12:56:12.585Z,98135.99
2022-08-17T12:57:32.711Z,98139.83
2022-08-17T12:58:47.480Z,98138.66
2022-08-17T12:59:54.976Z,98133.94
2022-08-17T13:01:14.985Z,98133.82
2022-08-17T13:02:30.001Z,98130.58
2022-08-17T13:03:44.067Z,98134.45
2022-08-17T13:04:46.221Z,98132.08
2022-08-17T13:05:58.597Z,98133.09
2022-08-17T13:07:00.447Z,98129.58
2022-08-17T13:08:13.458Z,98130.18
2022-08-17T13:09:35.561Z,98128.30
2022-08-17T13:10:42.378Z,98126.90
2022-08-17T13:11:58.379Z,98130.89
2022-08-17T13:13:17.738Z,98126.70
2022-08-17T13:14:21.977Z,98127.15
2022-08-17T13:15:44.928Z,98129.64
2022-08-17T13:16:51.333Z,98128.29
2022-08-17T13:18:01.078Z,98132.46
2022-08-17T13:19:40.371Z,98130.89
2022-08-17T13:20:54.183Z,98130.48
2022-08-17T13:22:01.874Z,98131.50
2022-08-17T13:23:12.392Z,98128.05
2022-08-17T13:24:24.121Z,98130.75
2022-08-17T13:25:27.781Z,98130.93
2022-08-17T13:26:42.142Z,98132.44
2022-08-17T13:27:45.978Z,98131.74
2022-08-17T13:28:51.678Z,98132.01
2022-08-17T13:29:59.573Z,98130.74
2022-08-17T13:31:37.469Z,98127.45
2022-08-17T13:32:56.519Z,98127.66
2022-08-17T13:34:26.880Z,98129.05
2022-08-17T13:35:49.305Z,98128.81
2022-08-17T13:37:28.888Z,98127.17
2022-08-17T13:38:49.531Z,98129.34
2022-08-17T13:39:53.162Z,98136.55
2022-08-17T13:40:54.852Z,98134.02
2022-08-17T13:41:56.564Z,98132.08
2022-08-17T13:42:58.927Z,98130.61
2022-08-17T13:44:01.241Z,98132.19
2022-08-17T13:45:34.784Z,98131.94
2022-08-17T13:46:31.292Z,98131.27
2022-08-17T13:47:34.328Z,98135.04
2022-08-17T13:48:36.559Z,98129.95
2022-08-17T13:49:48.147Z,98134.31
2022-08-17T13:50:56.801Z,98137.77
2022-08-17T13:51:58.850Z,98141.37
2022-08-17T13:53:14.914Z,98137.22
2022-08-17T13:54:27.769Z,98143.11
2022-08-17T13:55:32.094Z,98142.41
2022-08-17T13:56:40.445Z,98144.27
2022-08-17T13:57:46.813Z,98149.92
2022-08-17T13:59:00.602Z,98151.47
2022-08-17T14:00:18.798Z,98154.81
2022-08-17T14:01:32.818Z,98159.88
2022-08-17T14:02:34.566Z,98157.85
2022-08-17T14:03:36.266Z,98154.73
2022-08-17T14:04:42.322Z,98154.08
2022-08-17T14:05:45.962Z,98159.20
2022-08-17T14:07:21.528Z,98157.12
2022-08-17T14:08:23.980Z,98155.53
2022-08-17T14:09:36.805Z,98157.73
2022-08-17T14:10:39.019Z,98154.01
2022-08-17T14:11:41.992Z,98155.82